DCM6021 KJWN-07FA
Flight info
| Callsign | DCM6021 |
|---|---|
| Flight time | 1h 43m |
| Altitude | 47000 |
| Route | DCT BNA DCT ACORI FROGZ5 |
| Aircraft | C750/M-SBDE3FGHRWXY/S |
Departure
| Time | 2026-04-18 23:29 |
|---|---|
| Airport | John C Tune Airport (KJWN) |
Arrival
| Time | 2026-04-19 01:13 |
|---|---|
| Airport | Ocean Reef Club Airport (07FA) |
| Time | Latitude | Longitude | Altitude | Speed | Heading |
|---|---|---|---|---|---|
| 2026-04-18 23:20 | 36.17943 | -86.88486 | 507 ft | 0 kts | 47° |
| 2026-04-18 23:26 | 36.17950 | -86.88476 | 507 ft | 3 kts | 47° |
| 2026-04-18 23:27 | 36.17974 | -86.88478 | 507 ft | 4 kts | 319° |
| 2026-04-18 23:27 | 36.18012 | -86.88552 | 506 ft | 15 kts | 287° |
| 2026-04-18 23:27 | 36.17964 | -86.88621 | 506 ft | 16 kts | 193° |
| 2026-04-18 23:27 | 36.17832 | -86.88664 | 507 ft | 23 kts | 194° |
| 2026-04-18 23:28 | 36.17662 | -86.88719 | 507 ft | 25 kts | 194° |
| 2026-04-18 23:28 | 36.17508 | -86.88769 | 507 ft | 18 kts | 196° |
| 2026-04-18 23:28 | 36.17504 | -86.88863 | 506 ft | 12 kts | 285° |
| 2026-04-18 23:28 | 36.17554 | -86.88894 | 507 ft | 4 kts | 14° |
| 2026-04-18 23:29 | 36.17579 | -86.88886 | 507 ft | 18 kts | 14° |
| 2026-04-18 23:29 | 36.18057 | -86.88730 | 505 ft | 122 kts | 15° |
| 2026-04-18 23:29 | 36.18921 | -86.88431 | 1053 ft | 127 kts | 16° |
| 2026-04-18 23:29 | 36.19796 | -86.87993 | 1579 ft | 148 kts | 16° |
| 2026-04-18 23:30 | 36.20857 | -86.87499 | 1988 ft | 180 kts | 26° |
| 2026-04-18 23:30 | 36.21510 | -86.86753 | 2241 ft | 207 kts | 50° |
| 2026-04-18 23:30 | 36.21995 | -86.84248 | 2813 ft | 256 kts | 99° |
| 2026-04-18 23:30 | 36.21509 | -86.82834 | 3147 ft | 273 kts | 126° |
| 2026-04-18 23:31 | 36.19996 | -86.81519 | 4193 ft | 269 kts | 163° |
| 2026-04-18 23:31 | 36.18176 | -86.81139 | 5320 ft | 265 kts | 178° |
| 2026-04-18 23:31 | 36.16340 | -86.80934 | 6365 ft | 265 kts | 177° |
| 2026-04-18 23:31 | 36.14505 | -86.80570 | 7379 ft | 269 kts | 173° |
| 2026-04-18 23:32 | 36.12652 | -86.80094 | 8391 ft | 274 kts | 172° |
| 2026-04-18 23:32 | 36.10761 | -86.79644 | 9412 ft | 277 kts | 173° |
| 2026-04-18 23:32 | 36.08870 | -86.79230 | 10284 ft | 282 kts | 174° |
| 2026-04-18 23:32 | 36.06853 | -86.78783 | 10595 ft | 308 kts | 174° |
| 2026-04-18 23:33 | 36.04642 | -86.78278 | 10720 ft | 336 kts | 174° |
| 2026-04-18 23:33 | 36.02292 | -86.77668 | 11163 ft | 349 kts | 169° |
| 2026-04-18 23:33 | 35.99926 | -86.77025 | 11967 ft | 347 kts | 175° |
| 2026-04-18 23:33 | 35.97522 | -86.76632 | 12652 ft | 350 kts | 178° |
| 2026-04-18 23:34 | 35.95093 | -86.76203 | 13376 ft | 355 kts | 175° |
| 2026-04-18 23:34 | 35.92658 | -86.75603 | 14118 ft | 357 kts | 173° |
| 2026-04-18 23:34 | 35.90247 | -86.74988 | 14806 ft | 359 kts | 174° |
| 2026-04-18 23:34 | 35.87778 | -86.74443 | 15509 ft | 360 kts | 176° |
| 2026-04-18 23:35 | 35.85294 | -86.73920 | 16220 ft | 362 kts | 176° |
| 2026-04-18 23:35 | 35.82809 | -86.73354 | 16927 ft | 364 kts | 175° |
| 2026-04-18 23:35 | 35.80305 | -86.72755 | 17603 ft | 367 kts | 175° |
| 2026-04-18 23:35 | 35.77822 | -86.72184 | 18314 ft | 368 kts | 176° |
| 2026-04-18 23:36 | 35.75290 | -86.71637 | 18967 ft | 371 kts | 177° |
| 2026-04-18 23:36 | 35.72725 | -86.71071 | 19549 ft | 377 kts | 176° |
| 2026-04-18 23:36 | 35.70123 | -86.70467 | 20186 ft | 382 kts | 176° |
| 2026-04-18 23:36 | 35.67486 | -86.69860 | 20785 ft | 387 kts | 177° |
| 2026-04-18 23:37 | 35.64822 | -86.69264 | 21391 ft | 392 kts | 177° |
| 2026-04-18 23:37 | 35.62121 | -86.68657 | 22004 ft | 396 kts | 177° |
| 2026-04-18 23:37 | 35.59422 | -86.68046 | 22572 ft | 401 kts | 177° |
| 2026-04-18 23:37 | 35.56663 | -86.67423 | 23159 ft | 406 kts | 177° |
| 2026-04-18 23:38 | 35.53867 | -86.66795 | 23687 ft | 411 kts | 177° |
| 2026-04-18 23:38 | 35.51018 | -86.66156 | 24273 ft | 415 kts | 177° |
| 2026-04-18 23:38 | 35.48156 | -86.65514 | 24826 ft | 420 kts | 177° |
| 2026-04-18 23:38 | 35.45268 | -86.64867 | 25369 ft | 424 kts | 177° |
| 2026-04-18 23:39 | 35.42347 | -86.64208 | 25918 ft | 427 kts | 177° |
| 2026-04-18 23:39 | 35.39434 | -86.63554 | 26406 ft | 432 kts | 177° |
| 2026-04-18 23:39 | 35.36463 | -86.62891 | 26956 ft | 435 kts | 177° |
| 2026-04-18 23:39 | 35.33471 | -86.62222 | 27449 ft | 439 kts | 177° |
| 2026-04-18 23:40 | 35.30448 | -86.61543 | 27914 ft | 443 kts | 177° |
| 2026-04-18 23:40 | 35.27399 | -86.60861 | 28408 ft | 447 kts | 177° |
| 2026-04-18 23:40 | 35.24315 | -86.60176 | 28894 ft | 450 kts | 177° |
| 2026-04-18 23:40 | 35.21265 | -86.59495 | 29348 ft | 453 kts | 177° |
| 2026-04-18 23:41 | 35.18138 | -86.58800 | 29722 ft | 458 kts | 177° |
| 2026-04-18 23:41 | 35.14995 | -86.58097 | 30172 ft | 460 kts | 177° |
| 2026-04-18 23:41 | 35.11836 | -86.57388 | 30608 ft | 463 kts | 177° |
| 2026-04-18 23:41 | 35.08648 | -86.56679 | 31015 ft | 466 kts | 177° |
| 2026-04-18 23:42 | 35.05454 | -86.55969 | 31625 ft | 464 kts | 178° |
| 2026-04-18 23:42 | 35.02314 | -86.55269 | 32194 ft | 463 kts | 178° |
| 2026-04-18 23:42 | 34.99148 | -86.54564 | 32769 ft | 461 kts | 179° |
| 2026-04-18 23:42 | 34.95997 | -86.53867 | 33327 ft | 460 kts | 179° |
| 2026-04-18 23:43 | 34.92849 | -86.53172 | 33894 ft | 459 kts | 179° |
| 2026-04-18 23:43 | 34.89710 | -86.52475 | 34466 ft | 457 kts | 180° |
| 2026-04-18 23:43 | 34.86576 | -86.51782 | 34976 ft | 456 kts | 180° |
| 2026-04-18 23:43 | 34.83486 | -86.51100 | 35474 ft | 456 kts | 180° |
| 2026-04-18 23:44 | 34.80354 | -86.50408 | 35970 ft | 456 kts | 181° |
| 2026-04-18 23:44 | 34.77224 | -86.49717 | 36436 ft | 457 kts | 181° |
| 2026-04-18 23:44 | 34.74097 | -86.49031 | 36871 ft | 456 kts | 182° |
| 2026-04-18 23:44 | 34.70954 | -86.48338 | 37332 ft | 457 kts | 182° |
| 2026-04-18 23:45 | 34.67870 | -86.47646 | 37891 ft | 455 kts | 182° |
| 2026-04-18 23:45 | 34.64759 | -86.46961 | 38445 ft | 452 kts | 183° |
| 2026-04-18 23:45 | 34.61671 | -86.46287 | 38905 ft | 450 kts | 183° |
| 2026-04-18 23:45 | 34.58572 | -86.45615 | 39264 ft | 452 kts | 184° |
| 2026-04-18 23:46 | 34.55468 | -86.44934 | 39657 ft | 453 kts | 183° |
| 2026-04-18 23:46 | 34.52396 | -86.44252 | 40049 ft | 454 kts | 182° |
| 2026-04-18 23:46 | 34.49279 | -86.43566 | 40461 ft | 454 kts | 182° |
| 2026-04-18 23:46 | 34.46163 | -86.42888 | 40849 ft | 454 kts | 182° |
| 2026-04-18 23:47 | 34.43047 | -86.42209 | 41245 ft | 455 kts | 182° |
| 2026-04-18 23:47 | 34.39948 | -86.41530 | 41651 ft | 455 kts | 182° |
| 2026-04-18 23:47 | 34.36829 | -86.40847 | 41993 ft | 456 kts | 181° |
| 2026-04-18 23:47 | 34.33706 | -86.40161 | 42397 ft | 455 kts | 181° |
| 2026-04-18 23:48 | 34.30588 | -86.39479 | 42766 ft | 455 kts | 181° |
| 2026-04-18 23:48 | 34.27469 | -86.38803 | 43108 ft | 455 kts | 181° |
| 2026-04-18 23:48 | 34.24334 | -86.38120 | 43454 ft | 456 kts | 181° |
| 2026-04-18 23:48 | 34.21249 | -86.37442 | 43842 ft | 455 kts | 181° |
| 2026-04-18 23:49 | 34.18128 | -86.36765 | 44175 ft | 455 kts | 180° |
| 2026-04-18 23:49 | 34.15006 | -86.36092 | 44480 ft | 456 kts | 180° |
| 2026-04-18 23:49 | 34.11883 | -86.35413 | 44779 ft | 456 kts | 180° |
| 2026-04-18 23:49 | 34.08748 | -86.34728 | 45080 ft | 457 kts | 180° |
| 2026-04-18 23:50 | 34.05605 | -86.34044 | 45372 ft | 457 kts | 180° |
| 2026-04-18 23:50 | 34.02510 | -86.33375 | 45653 ft | 458 kts | 179° |
| 2026-04-18 23:50 | 33.99365 | -86.32695 | 45924 ft | 458 kts | 179° |
| 2026-04-18 23:50 | 33.96223 | -86.32015 | 46209 ft | 458 kts | 179° |
| 2026-04-18 23:51 | 33.93079 | -86.31332 | 46491 ft | 458 kts | 179° |
| 2026-04-18 23:51 | 33.89930 | -86.30651 | 46728 ft | 458 kts | 178° |
| 2026-04-18 23:51 | 33.86837 | -86.29983 | 46974 ft | 456 kts | 178° |
| 2026-04-18 23:52 | 33.80518 | -86.28627 | 47030 ft | 467 kts | 178° |
| 2026-04-18 23:52 | 33.74052 | -86.27229 | 47046 ft | 477 kts | 178° |
| 2026-04-18 23:53 | 33.67430 | -86.25807 | 47043 ft | 488 kts | 178° |
| 2026-04-18 23:53 | 33.60709 | -86.24358 | 47034 ft | 498 kts | 177° |
| 2026-04-18 23:54 | 33.53822 | -86.22883 | 47039 ft | 507 kts | 177° |
| 2026-04-18 23:54 | 33.46797 | -86.21381 | 47041 ft | 516 kts | 177° |
| 2026-04-18 23:55 | 33.39702 | -86.19863 | 47043 ft | 524 kts | 177° |
| 2026-04-18 23:55 | 33.32466 | -86.18319 | 47044 ft | 528 kts | 177° |
| 2026-04-18 23:56 | 33.25213 | -86.16772 | 47048 ft | 529 kts | 177° |
| 2026-04-18 23:56 | 33.17995 | -86.15239 | 47051 ft | 529 kts | 177° |
| 2026-04-18 23:57 | 33.10746 | -86.13698 | 47047 ft | 529 kts | 177° |
| 2026-04-18 23:57 | 33.03482 | -86.12160 | 47046 ft | 529 kts | 176° |
| 2026-04-18 23:58 | 32.96267 | -86.10632 | 47042 ft | 528 kts | 176° |
| 2026-04-18 23:58 | 32.89007 | -86.09099 | 47039 ft | 528 kts | 176° |
| 2026-04-18 23:59 | 32.81798 | -86.07579 | 47040 ft | 528 kts | 176° |
| 2026-04-18 23:59 | 32.74555 | -86.06054 | 47044 ft | 528 kts | 176° |
| 2026-04-19 00:00 | 32.67303 | -86.04529 | 47035 ft | 528 kts | 176° |
| 2026-04-19 00:00 | 32.60099 | -86.03018 | 47036 ft | 529 kts | 176° |
| 2026-04-19 00:01 | 32.52815 | -86.01497 | 47033 ft | 532 kts | 176° |
| 2026-04-19 00:01 | 32.45506 | -85.99963 | 47034 ft | 533 kts | 176° |
| 2026-04-19 00:02 | 32.38231 | -85.98445 | 47038 ft | 534 kts | 176° |
| 2026-04-19 00:02 | 32.30879 | -85.96910 | 47032 ft | 534 kts | 176° |
| 2026-04-19 00:03 | 32.23589 | -85.95394 | 47032 ft | 534 kts | 176° |
| 2026-04-19 00:03 | 32.16262 | -85.93870 | 47032 ft | 534 kts | 176° |
| 2026-04-19 00:04 | 32.08937 | -85.92354 | 47030 ft | 534 kts | 176° |
| 2026-04-19 00:04 | 32.01671 | -85.90844 | 47030 ft | 534 kts | 176° |
| 2026-04-19 00:05 | 31.94344 | -85.89336 | 47030 ft | 534 kts | 176° |
| 2026-04-19 00:05 | 31.87019 | -85.87818 | 47034 ft | 534 kts | 176° |
| 2026-04-19 00:06 | 31.79855 | -85.85290 | 47024 ft | 548 kts | 161° |
| 2026-04-19 00:06 | 31.73336 | -85.80387 | 47023 ft | 563 kts | 144° |
| 2026-04-19 00:07 | 31.67947 | -85.73689 | 47036 ft | 570 kts | 134° |
| 2026-04-19 00:07 | 31.62676 | -85.66712 | 47035 ft | 568 kts | 137° |
| 2026-04-19 00:08 | 31.57349 | -85.59948 | 47034 ft | 569 kts | 136° |
| 2026-04-19 00:08 | 31.52066 | -85.52990 | 47033 ft | 569 kts | 136° |
| 2026-04-19 00:09 | 31.46742 | -85.46212 | 47040 ft | 568 kts | 136° |
| 2026-04-19 00:09 | 31.41454 | -85.39328 | 47063 ft | 568 kts | 136° |
| 2026-04-19 00:10 | 31.36109 | -85.32500 | 47067 ft | 568 kts | 136° |
| 2026-04-19 00:10 | 31.30795 | -85.25638 | 47058 ft | 567 kts | 136° |
| 2026-04-19 00:11 | 31.25485 | -85.18860 | 47061 ft | 568 kts | 136° |
| 2026-04-19 00:11 | 31.20144 | -85.12008 | 47047 ft | 568 kts | 136° |
| 2026-04-19 00:12 | 31.14841 | -85.05240 | 47041 ft | 568 kts | 136° |
| 2026-04-19 00:12 | 31.09502 | -84.98436 | 47048 ft | 568 kts | 136° |
| 2026-04-19 00:13 | 31.04166 | -84.91636 | 47044 ft | 568 kts | 136° |
| 2026-04-19 00:13 | 30.98845 | -84.84887 | 47040 ft | 567 kts | 136° |
| 2026-04-19 00:14 | 30.93502 | -84.78104 | 47042 ft | 568 kts | 136° |
| 2026-04-19 00:14 | 30.88137 | -84.71317 | 47044 ft | 568 kts | 136° |
| 2026-04-19 00:15 | 30.82778 | -84.64541 | 47041 ft | 567 kts | 136° |
| 2026-04-19 00:15 | 30.77444 | -84.57817 | 47043 ft | 568 kts | 136° |
| 2026-04-19 00:16 | 30.72078 | -84.51052 | 47057 ft | 568 kts | 136° |
| 2026-04-19 00:16 | 30.66749 | -84.44362 | 47063 ft | 567 kts | 136° |
| 2026-04-19 00:17 | 30.61386 | -84.37628 | 47063 ft | 568 kts | 136° |
| 2026-04-19 00:17 | 30.56010 | -84.30899 | 47061 ft | 567 kts | 136° |
| 2026-04-19 00:18 | 30.50671 | -84.24217 | 47059 ft | 567 kts | 136° |
| 2026-04-19 00:18 | 30.46189 | -84.18621 | 47062 ft | 566 kts | 136° |
| 2026-04-19 00:19 | 30.40820 | -84.11933 | 47062 ft | 567 kts | 136° |
| 2026-04-19 00:19 | 30.34970 | -84.05903 | 47044 ft | 559 kts | 150° |
| 2026-04-19 00:20 | 30.28223 | -84.01499 | 47066 ft | 554 kts | 157° |
| 2026-04-19 00:20 | 30.21513 | -83.97170 | 47060 ft | 558 kts | 152° |
| 2026-04-19 00:21 | 30.14824 | -83.92607 | 47060 ft | 556 kts | 155° |
| 2026-04-19 00:21 | 30.08049 | -83.88251 | 47061 ft | 557 kts | 154° |
| 2026-04-19 00:22 | 30.01393 | -83.83754 | 47062 ft | 556 kts | 154° |
| 2026-04-19 00:22 | 29.94635 | -83.79380 | 47063 ft | 556 kts | 154° |
| 2026-04-19 00:23 | 29.87922 | -83.74905 | 47063 ft | 556 kts | 154° |
| 2026-04-19 00:23 | 29.81212 | -83.70530 | 47062 ft | 557 kts | 154° |
| 2026-04-19 00:24 | 29.74476 | -83.66093 | 47064 ft | 557 kts | 154° |
| 2026-04-19 00:24 | 29.67732 | -83.61687 | 47063 ft | 557 kts | 154° |
| 2026-04-19 00:25 | 29.61022 | -83.57295 | 47064 ft | 557 kts | 154° |
| 2026-04-19 00:25 | 29.54280 | -83.52891 | 47063 ft | 558 kts | 154° |
| 2026-04-19 00:26 | 29.47516 | -83.48485 | 47063 ft | 558 kts | 154° |
| 2026-04-19 00:26 | 29.40741 | -83.44072 | 47064 ft | 559 kts | 154° |
| 2026-04-19 00:27 | 29.34022 | -83.39707 | 47063 ft | 557 kts | 154° |
| 2026-04-19 00:27 | 29.27248 | -83.35311 | 47065 ft | 558 kts | 154° |
| 2026-04-19 00:28 | 29.20262 | -83.31486 | 47066 ft | 555 kts | 160° |
| 2026-04-19 00:28 | 29.13199 | -83.27971 | 47071 ft | 555 kts | 159° |
| 2026-04-19 00:29 | 29.06146 | -83.24342 | 47072 ft | 555 kts | 160° |
| 2026-04-19 00:29 | 28.99095 | -83.20815 | 47073 ft | 555 kts | 160° |
| 2026-04-19 00:30 | 28.92019 | -83.17211 | 47074 ft | 555 kts | 160° |
| 2026-04-19 00:30 | 28.84977 | -83.13678 | 47073 ft | 555 kts | 160° |
| 2026-04-19 00:31 | 28.77895 | -83.10098 | 47073 ft | 555 kts | 160° |
| 2026-04-19 00:31 | 28.70811 | -83.06543 | 47072 ft | 556 kts | 160° |
| 2026-04-19 00:32 | 28.63730 | -83.02981 | 47073 ft | 556 kts | 160° |
| 2026-04-19 00:32 | 28.56677 | -82.99447 | 47074 ft | 556 kts | 160° |
| 2026-04-19 00:33 | 28.49582 | -82.95893 | 47074 ft | 556 kts | 160° |
| 2026-04-19 00:33 | 28.42523 | -82.92364 | 47074 ft | 556 kts | 160° |
| 2026-04-19 00:34 | 28.31899 | -82.87061 | 47075 ft | 555 kts | 160° |
| 2026-04-19 00:34 | 28.24816 | -82.83534 | 47073 ft | 556 kts | 160° |
| 2026-04-19 00:35 | 28.17716 | -82.80000 | 47068 ft | 557 kts | 160° |
| 2026-04-19 00:35 | 28.10654 | -82.76493 | 47069 ft | 556 kts | 160° |
| 2026-04-19 00:36 | 28.03560 | -82.72978 | 47069 ft | 556 kts | 160° |
| 2026-04-19 00:36 | 27.96175 | -82.70635 | 47062 ft | 548 kts | 174° |
| 2026-04-19 00:37 | 27.88615 | -82.69367 | 47069 ft | 549 kts | 174° |
| 2026-04-19 00:37 | 27.81140 | -82.67743 | 47055 ft | 549 kts | 173° |
| 2026-04-19 00:38 | 27.73601 | -82.66351 | 47046 ft | 548 kts | 174° |
| 2026-04-19 00:38 | 27.66079 | -82.64818 | 47041 ft | 549 kts | 173° |
| 2026-04-19 00:39 | 27.58552 | -82.63367 | 47049 ft | 548 kts | 174° |
| 2026-04-19 00:39 | 27.51072 | -82.61737 | 47055 ft | 551 kts | 169° |
| 2026-04-19 00:40 | 27.43633 | -82.59474 | 47063 ft | 551 kts | 168° |
| 2026-04-19 00:40 | 27.36252 | -82.57343 | 47060 ft | 551 kts | 169° |
| 2026-04-19 00:41 | 27.28810 | -82.55153 | 47063 ft | 551 kts | 168° |
| 2026-04-19 00:41 | 27.21523 | -82.53012 | 47033 ft | 524 kts | 169° |
| 2026-04-19 00:42 | 27.18050 | -82.51998 | 47028 ft | 508 kts | 169° |
| 2026-04-19 00:42 | 27.14628 | -82.51002 | 47038 ft | 508 kts | 169° |
| 2026-04-19 00:42 | 27.11195 | -82.50001 | 46886 ft | 506 kts | 169° |
| 2026-04-19 00:42 | 27.07790 | -82.49004 | 46171 ft | 502 kts | 169° |
| 2026-04-19 00:43 | 27.04428 | -82.48020 | 45506 ft | 496 kts | 169° |
| 2026-04-19 00:43 | 27.01131 | -82.47059 | 44860 ft | 491 kts | 170° |
| 2026-04-19 00:43 | 26.97837 | -82.46101 | 44214 ft | 488 kts | 170° |
| 2026-04-19 00:43 | 26.94556 | -82.45087 | 43554 ft | 490 kts | 166° |
| 2026-04-19 00:44 | 26.91378 | -82.43602 | 42903 ft | 499 kts | 156° |
| 2026-04-19 00:44 | 26.88387 | -82.41559 | 42248 ft | 508 kts | 147° |
| 2026-04-19 00:44 | 26.85628 | -82.39045 | 41583 ft | 512 kts | 140° |
| 2026-04-19 00:44 | 26.83028 | -82.36302 | 40906 ft | 515 kts | 137° |
| 2026-04-19 00:45 | 26.80480 | -82.33539 | 40220 ft | 516 kts | 139° |
| 2026-04-19 00:45 | 26.77764 | -82.30904 | 39530 ft | 516 kts | 143° |
| 2026-04-19 00:45 | 26.74941 | -82.28404 | 38843 ft | 517 kts | 144° |
| 2026-04-19 00:45 | 26.72175 | -82.25832 | 38157 ft | 519 kts | 140° |
| 2026-04-19 00:46 | 26.69480 | -82.23130 | 37449 ft | 519 kts | 139° |
| 2026-04-19 00:46 | 26.66793 | -82.20484 | 36766 ft | 518 kts | 141° |
| 2026-04-19 00:46 | 26.64021 | -82.17903 | 36074 ft | 517 kts | 142° |
| 2026-04-19 00:46 | 26.61248 | -82.15323 | 35383 ft | 520 kts | 140° |
| 2026-04-19 00:47 | 26.58499 | -82.12669 | 34687 ft | 523 kts | 139° |
| 2026-04-19 00:47 | 26.55739 | -82.09984 | 33986 ft | 527 kts | 139° |
| 2026-04-19 00:47 | 26.52949 | -82.07319 | 33278 ft | 529 kts | 138° |
| 2026-04-19 00:47 | 26.50269 | -82.04563 | 32583 ft | 529 kts | 137° |
| 2026-04-19 00:48 | 26.47510 | -82.01849 | 31878 ft | 527 kts | 139° |
| 2026-04-19 00:48 | 26.44743 | -81.99139 | 31173 ft | 528 kts | 138° |
| 2026-04-19 00:48 | 26.42014 | -81.96360 | 30468 ft | 528 kts | 137° |
| 2026-04-19 00:48 | 26.39364 | -81.93637 | 29772 ft | 520 kts | 137° |
| 2026-04-19 00:49 | 26.36692 | -81.90962 | 29084 ft | 512 kts | 139° |
| 2026-04-19 00:49 | 26.34051 | -81.88352 | 28415 ft | 504 kts | 138° |
| 2026-04-19 00:49 | 26.31450 | -81.85740 | 27748 ft | 496 kts | 138° |
| 2026-04-19 00:49 | 26.28930 | -81.83184 | 27090 ft | 478 kts | 137° |
| 2026-04-19 00:50 | 26.26515 | -81.80758 | 26479 ft | 458 kts | 138° |
| 2026-04-19 00:50 | 26.24236 | -81.78341 | 25833 ft | 448 kts | 131° |
| 2026-04-19 00:50 | 26.22619 | -81.75478 | 25285 ft | 438 kts | 116° |
| 2026-04-19 00:50 | 26.21289 | -81.72451 | 24720 ft | 433 kts | 114° |
| 2026-04-19 00:51 | 26.20017 | -81.69433 | 24147 ft | 428 kts | 114° |
| 2026-04-19 00:51 | 26.18734 | -81.66453 | 23574 ft | 422 kts | 115° |
| 2026-04-19 00:51 | 26.17445 | -81.63536 | 23014 ft | 417 kts | 115° |
| 2026-04-19 00:51 | 26.16176 | -81.60644 | 22459 ft | 413 kts | 115° |
| 2026-04-19 00:52 | 26.14951 | -81.57809 | 21919 ft | 408 kts | 115° |
| 2026-04-19 00:52 | 26.13721 | -81.54970 | 21383 ft | 404 kts | 115° |
| 2026-04-19 00:52 | 26.12493 | -81.52162 | 20849 ft | 401 kts | 115° |
| 2026-04-19 00:52 | 26.11275 | -81.49383 | 20317 ft | 396 kts | 115° |
| 2026-04-19 00:53 | 26.10074 | -81.46629 | 19792 ft | 393 kts | 115° |
| 2026-04-19 00:53 | 26.08887 | -81.43907 | 19271 ft | 389 kts | 115° |
| 2026-04-19 00:53 | 26.07709 | -81.41213 | 18756 ft | 385 kts | 115° |
| 2026-04-19 00:53 | 26.06554 | -81.38577 | 18252 ft | 382 kts | 115° |
| 2026-04-19 00:54 | 26.05402 | -81.35933 | 17747 ft | 378 kts | 115° |
| 2026-04-19 00:54 | 26.04262 | -81.33305 | 17235 ft | 375 kts | 115° |
| 2026-04-19 00:54 | 26.03129 | -81.30701 | 16748 ft | 372 kts | 115° |
| 2026-04-19 00:54 | 26.02001 | -81.28122 | 16254 ft | 370 kts | 115° |
| 2026-04-19 00:55 | 26.00882 | -81.25560 | 15765 ft | 366 kts | 115° |
| 2026-04-19 00:55 | 25.99775 | -81.23023 | 15279 ft | 363 kts | 115° |
| 2026-04-19 00:55 | 25.98675 | -81.20502 | 14797 ft | 360 kts | 115° |
| 2026-04-19 00:55 | 25.97582 | -81.18004 | 14319 ft | 357 kts | 115° |
| 2026-04-19 00:56 | 25.96516 | -81.15566 | 13852 ft | 354 kts | 115° |
| 2026-04-19 00:56 | 25.95438 | -81.13104 | 13381 ft | 352 kts | 115° |
| 2026-04-19 00:56 | 25.94371 | -81.10665 | 12915 ft | 349 kts | 115° |
| 2026-04-19 00:56 | 25.93313 | -81.08252 | 12452 ft | 346 kts | 115° |
| 2026-04-19 00:57 | 25.92261 | -81.05853 | 11992 ft | 343 kts | 115° |
| 2026-04-19 00:57 | 25.91320 | -81.03772 | 11585 ft | 341 kts | 118° |
| 2026-04-19 00:57 | 25.89979 | -81.01602 | 11137 ft | 339 kts | 126° |
| 2026-04-19 00:57 | 25.88595 | -80.99492 | 10691 ft | 335 kts | 126° |
| 2026-04-19 00:58 | 25.87296 | -80.97472 | 10259 ft | 316 kts | 125° |
| 2026-04-19 00:58 | 25.86054 | -80.95524 | 9843 ft | 302 kts | 125° |
| 2026-04-19 00:58 | 25.84844 | -80.93641 | 9448 ft | 297 kts | 126° |
| 2026-04-19 00:58 | 25.83615 | -80.91814 | 9052 ft | 291 kts | 130° |
| 2026-04-19 00:59 | 25.82097 | -80.90489 | 9036 ft | 266 kts | 146° |
| 2026-04-19 00:59 | 25.80585 | -80.89344 | 9038 ft | 262 kts | 146° |
| 2026-04-19 00:59 | 25.79089 | -80.88188 | 9038 ft | 261 kts | 145° |
| 2026-04-19 00:59 | 25.77603 | -80.87040 | 9041 ft | 260 kts | 146° |
| 2026-04-19 01:00 | 25.76112 | -80.85895 | 9046 ft | 260 kts | 146° |
| 2026-04-19 01:00 | 25.74634 | -80.84764 | 9047 ft | 260 kts | 146° |
| 2026-04-19 01:00 | 25.73143 | -80.83620 | 9048 ft | 260 kts | 146° |
| 2026-04-19 01:00 | 25.71648 | -80.82473 | 9048 ft | 260 kts | 146° |
| 2026-04-19 01:01 | 25.70159 | -80.81331 | 9048 ft | 260 kts | 146° |
| 2026-04-19 01:01 | 25.68668 | -80.80187 | 9048 ft | 260 kts | 146° |
| 2026-04-19 01:01 | 25.67177 | -80.79046 | 9049 ft | 260 kts | 146° |
| 2026-04-19 01:01 | 25.65684 | -80.77902 | 9049 ft | 260 kts | 146° |
| 2026-04-19 01:02 | 25.64191 | -80.76759 | 9045 ft | 260 kts | 146° |
| 2026-04-19 01:02 | 25.62703 | -80.75619 | 9043 ft | 260 kts | 146° |
| 2026-04-19 01:02 | 25.61229 | -80.74491 | 9044 ft | 260 kts | 146° |
| 2026-04-19 01:02 | 25.59737 | -80.73350 | 9045 ft | 260 kts | 146° |
| 2026-04-19 01:03 | 25.58244 | -80.72208 | 9045 ft | 260 kts | 146° |
| 2026-04-19 01:03 | 25.57254 | -80.71452 | 9046 ft | 260 kts | 146° |
| 2026-04-19 01:03 | 25.55764 | -80.70313 | 9044 ft | 260 kts | 146° |
| 2026-04-19 01:03 | 25.54272 | -80.69172 | 9042 ft | 260 kts | 146° |
| 2026-04-19 01:04 | 25.52778 | -80.68031 | 9043 ft | 260 kts | 146° |
| 2026-04-19 01:04 | 25.51286 | -80.66892 | 9043 ft | 260 kts | 146° |
| 2026-04-19 01:04 | 25.49793 | -80.65751 | 9043 ft | 260 kts | 146° |
| 2026-04-19 01:04 | 25.48303 | -80.64613 | 9043 ft | 260 kts | 146° |
| 2026-04-19 01:05 | 25.46815 | -80.63474 | 9043 ft | 260 kts | 146° |
| 2026-04-19 01:05 | 25.45309 | -80.62325 | 9023 ft | 274 kts | 146° |
| 2026-04-19 01:05 | 25.43685 | -80.61091 | 8799 ft | 285 kts | 146° |
| 2026-04-19 01:05 | 25.42060 | -80.59853 | 8455 ft | 287 kts | 146° |
| 2026-04-19 01:06 | 25.40415 | -80.58599 | 8077 ft | 287 kts | 146° |
| 2026-04-19 01:06 | 25.38776 | -80.57351 | 7696 ft | 285 kts | 146° |
| 2026-04-19 01:06 | 25.37150 | -80.56109 | 7314 ft | 282 kts | 146° |
| 2026-04-19 01:06 | 25.35536 | -80.54879 | 6938 ft | 282 kts | 145° |
| 2026-04-19 01:07 | 25.33924 | -80.53658 | 6564 ft | 280 kts | 146° |
| 2026-04-19 01:07 | 25.32325 | -80.52447 | 6198 ft | 277 kts | 145° |
| 2026-04-19 01:07 | 25.30743 | -80.51246 | 5834 ft | 275 kts | 145° |
| 2026-04-19 01:07 | 25.29187 | -80.50057 | 5479 ft | 274 kts | 145° |
| 2026-04-19 01:08 | 25.27622 | -80.48857 | 5125 ft | 273 kts | 143° |
| 2026-04-19 01:08 | 25.26302 | -80.47379 | 4746 ft | 270 kts | 128° |
| 2026-04-19 01:08 | 25.25160 | -80.45730 | 4418 ft | 269 kts | 126° |
| 2026-04-19 01:08 | 25.24010 | -80.44100 | 4075 ft | 269 kts | 128° |
| 2026-04-19 01:09 | 25.22861 | -80.42520 | 3729 ft | 266 kts | 128° |
| 2026-04-19 01:09 | 25.21864 | -80.40950 | 3318 ft | 219 kts | 114° |
| 2026-04-19 01:09 | 25.21527 | -80.39427 | 3064 ft | 195 kts | 94° |
| 2026-04-19 01:09 | 25.21664 | -80.38016 | 3000 ft | 176 kts | 75° |
| 2026-04-19 01:10 | 25.22166 | -80.36772 | 2847 ft | 180 kts | 57° |
| 2026-04-19 01:10 | 25.23010 | -80.35765 | 2579 ft | 177 kts | 40° |
| 2026-04-19 01:10 | 25.23981 | -80.34938 | 2314 ft | 175 kts | 39° |
| 2026-04-19 01:10 | 25.24932 | -80.34098 | 2046 ft | 174 kts | 40° |
| 2026-04-19 01:11 | 25.25886 | -80.33268 | 1772 ft | 173 kts | 39° |
| 2026-04-19 01:11 | 25.26820 | -80.32456 | 1509 ft | 173 kts | 39° |
| 2026-04-19 01:11 | 25.27763 | -80.31636 | 1240 ft | 172 kts | 40° |
| 2026-04-19 01:11 | 25.28708 | -80.30814 | 975 ft | 172 kts | 39° |
| 2026-04-19 01:12 | 25.29644 | -80.29998 | 704 ft | 171 kts | 40° |
| 2026-04-19 01:12 | 25.30580 | -80.29187 | 428 ft | 165 kts | 39° |
| 2026-04-19 01:12 | 25.31371 | -80.28499 | 206 ft | 129 kts | 40° |
| 2026-04-19 01:12 | 25.32053 | -80.27904 | 18 ft | 119 kts | 39° |
| 2026-04-19 01:13 | 25.32567 | -80.27455 | 10 ft | 62 kts | 38° |
| 2026-04-19 01:13 | 25.32826 | -80.27230 | 11 ft | 33 kts | 38° |
| 2026-04-19 01:13 | 25.32888 | -80.27159 | 11 ft | 6 kts | 48° |
| 2026-04-19 01:13 | 25.32879 | -80.27185 | 11 ft | 12 kts | 216° |
| 2026-04-19 01:14 | 25.32809 | -80.27246 | 11 ft | 15 kts | 219° |
| 2026-04-19 01:14 | 25.32718 | -80.27326 | 12 ft | 20 kts | 218° |
| 2026-04-19 01:14 | 25.32604 | -80.27424 | 11 ft | 21 kts | 217° |
| 2026-04-19 01:14 | 25.32484 | -80.27522 | 10 ft | 21 kts | 217° |
| 2026-04-19 01:15 | 25.32362 | -80.27634 | 8 ft | 24 kts | 218° |
| 2026-04-19 01:15 | 25.32234 | -80.27745 | 9 ft | 23 kts | 218° |
| 2026-04-19 01:15 | 25.32129 | -80.27833 | 11 ft | 11 kts | 217° |
| 2026-04-19 01:15 | 25.32085 | -80.27827 | 12 ft | 4 kts | 175° |
| 2026-04-19 01:16 | 25.32073 | -80.27839 | 12 ft | 0 kts | 219° |